sensor_id;sensor_type;location;lat;lon;timestamp;temperature;humidity
30128;DHT22;16942;53.196;6.592;2022-08-21T00:00:54;17.00;99.90
30128;DHT22;16942;53.196;6.592;2022-08-21T00:03:19;17.00;99.90
30128;DHT22;16942;53.196;6.592;2022-08-21T00:05:49;17.00;99.90
30128;DHT22;16942;53.196;6.592;2022-08-21T00:08:16;17.00;99.90
30128;DHT22;16942;53.196;6.592;2022-08-21T00:10:42;17.00;99.90
30128;DHT22;16942;53.196;6.592;2022-08-21T00:13:09;16.90;99.90
30128;DHT22;16942;53.196;6.592;2022-08-21T00:15:37;16.90;99.90
30128;DHT22;16942;53.196;6.592;2022-08-21T00:18:04;16.90;99.90
30128;DHT22;16942;53.196;6.592;2022-08-21T00:20:30;16.90;99.90
30128;DHT22;16942;53.196;6.592;2022-08-21T00:22:56;16.80;99.90
30128;DHT22;16942;53.196;6.592;2022-08-21T00:25:22;16.80;99.90
30128;DHT22;16942;53.196;6.592;2022-08-21T00:27:48;16.80;99.90
30128;DHT22;16942;53.196;6.592;2022-08-21T00:30:16;16.80;99.90
30128;DHT22;16942;53.196;6.592;2022-08-21T00:32:42;16.70;99.90
30128;DHT22;16942;53.196;6.592;2022-08-21T00:35:11;16.70;99.90
30128;DHT22;16942;53.196;6.592;2022-08-21T00:37:38;16.70;99.90
30128;DHT22;16942;53.196;6.592;2022-08-21T00:40:09;16.60;99.90
30128;DHT22;16942;53.196;6.592;2022-08-21T00:42:35;16.60;99.90
30128;DHT22;16942;53.196;6.592;2022-08-21T00:45:03;16.50;99.90
30128;DHT22;16942;53.196;6.592;2022-08-21T00:47:29;16.50;99.90
30128;DHT22;16942;53.196;6.592;2022-08-21T00:49:55;16.50;99.90
30128;DHT22;16942;53.196;6.592;2022-08-21T00:52:28;16.40;99.90
30128;DHT22;16942;53.196;6.592;2022-08-21T00:54:57;16.40;99.90
30128;DHT22;16942;53.196;6.592;2022-08-21T00:57:28;16.30;99.90
30128;DHT22;16942;53.196;6.592;2022-08-21T00:59:57;16.30;99.90
30128;DHT22;16942;53.196;6.592;2022-08-21T01:02:24;16.30;99.90
30128;DHT22;16942;53.196;6.592;2022-08-21T01:04:50;16.20;99.90
30128;DHT22;16942;53.196;6.592;2022-08-21T01:07:16;16.20;99.90
30128;DHT22;16942;53.196;6.592;2022-08-21T01:09:41;16.20;99.90
30128;DHT22;16942;53.196;6.592;2022-08-21T01:12:08;16.20;99.90
30128;DHT22;16942;53.196;6.592;2022-08-21T01:14:34;16.20;99.90
30128;DHT22;16942;53.196;6.592;2022-08-21T01:17:01;16.20;99.90
30128;DHT22;16942;53.196;6.592;2022-08-21T01:19:28;16.20;99.90
30128;DHT22;16942;53.196;6.592;2022-08-21T01:21:55;16.10;99.90
30128;DHT22;16942;53.196;6.592;2022-08-21T01:24:21;16.10;99.90
30128;DHT22;16942;53.196;6.592;2022-08-21T01:26:47;16.10;99.90
30128;DHT22;16942;53.196;6.592;2022-08-21T01:29:26;16.00;99.90
30128;DHT22;16942;53.196;6.592;2022-08-21T01:31:54;16.00;99.90
30128;DHT22;16942;53.196;6.592;2022-08-21T01:34:20;16.00;99.90
30128;DHT22;16942;53.196;6.592;2022-08-21T01:36:46;16.00;99.90
30128;DHT22;16942;53.196;6.592;2022-08-21T01:39:12;16.00;99.90
30128;DHT22;16942;53.196;6.592;2022-08-21T01:41:38;15.90;99.90
30128;DHT22;16942;53.196;6.592;2022-08-21T01:44:04;15.90;99.90
30128;DHT22;16942;53.196;6.592;2022-08-21T01:46:30;15.90;99.90
30128;DHT22;16942;53.196;6.592;2022-08-21T01:48:56;15.90;99.90
30128;DHT22;16942;53.196;6.592;2022-08-21T01:51:22;15.90;99.90
30128;DHT22;16942;53.196;6.592;2022-08-21T01:53:47;15.90;99.90
30128;DHT22;16942;53.196;6.592;2022-08-21T01:56:15;15.90;99.90
30128;DHT22;16942;53.196;6.592;2022-08-21T01:58:43;15.90;99.90
30128;DHT22;16942;53.196;6.592;2022-08-21T02:01:09;15.90;99.90
30128;DHT22;16942;53.196;6.592;2022-08-21T02:03:36;15.90;99.90
30128;DHT22;16942;53.196;6.592;2022-08-21T02:06:06;15.90;99.90
30128;DHT22;16942;53.196;6.592;2022-08-21T02:08:32;15.90;99.90
30128;DHT22;16942;53.196;6.592;2022-08-21T02:10:58;15.90;99.90
30128;DHT22;16942;53.196;6.592;2022-08-21T02:13:24;15.90;99.90
30128;DHT22;16942;53.196;6.592;2022-08-21T02:15:50;15.90;99.90
30128;DHT22;16942;53.196;6.592;2022-08-21T02:18:15;15.90;99.90
30128;DHT22;16942;53.196;6.592;2022-08-21T02:20:44;15.90;99.90
30128;DHT22;16942;53.196;6.592;2022-08-21T02:23:11;15.90;99.90
30128;DHT22;16942;53.196;6.592;2022-08-21T02:25:37;15.90;99.90
30128;DHT22;16942;53.196;6.592;2022-08-21T02:28:11;15.90;99.90
30128;DHT22;16942;53.196;6.592;2022-08-21T02:30:42;15.90;99.90
30128;DHT22;16942;53.196;6.592;2022-08-21T02:33:09;15.90;99.90
30128;DHT22;16942;53.196;6.592;2022-08-21T02:35:36;15.90;99.90
30128;DHT22;16942;53.196;6.592;2022-08-21T02:38:05;15.90;99.90
30128;DHT22;16942;53.196;6.592;2022-08-21T02:40:34;15.90;99.90
30128;DHT22;16942;53.196;6.592;2022-08-21T02:43:02;16.00;99.90
30128;DHT22;16942;53.196;6.592;2022-08-21T02:45:28;15.90;99.90
30128;DHT22;16942;53.196;6.592;2022-08-21T02:47:59;15.90;99.90
30128;DHT22;16942;53.196;6.592;2022-08-21T02:50:34;15.90;99.90
30128;DHT22;16942;53.196;6.592;2022-08-21T02:53:00;15.90;99.90
30128;DHT22;16942;53.196;6.592;2022-08-21T02:55:28;15.90;99.90
30128;DHT22;16942;53.196;6.592;2022-08-21T02:57:56;15.90;99.90
30128;DHT22;16942;53.196;6.592;2022-08-21T03:00:23;15.90;99.90
30128;DHT22;16942;53.196;6.592;2022-08-21T03:02:49;15.90;99.90
30128;DHT22;16942;53.196;6.592;2022-08-21T03:05:16;15.90;99.90
30128;DHT22;16942;53.196;6.592;2022-08-21T03:07:44;15.90;99.90
30128;DHT22;16942;53.196;6.592;2022-08-21T03:10:10;15.90;99.90
30128;DHT22;16942;53.196;6.592;2022-08-21T03:12:36;16.00;99.90
30128;DHT22;16942;53.196;6.592;2022-08-21T03:15:08;15.90;99.90
30128;DHT22;16942;53.196;6.592;2022-08-21T03:17:34;16.00;99.90
30128;DHT22;16942;53.196;6.592;2022-08-21T03:20:00;16.00;99.90
30128;DHT22;16942;53.196;6.592;2022-08-21T03:22:28;15.90;99.90
30128;DHT22;16942;53.196;6.592;2022-08-21T03:24:53;15.90;99.90
30128;DHT22;16942;53.196;6.592;2022-08-21T03:27:19;15.90;99.90
30128;DHT22;16942;53.196;6.592;2022-08-21T03:29:45;15.90;99.90
30128;DHT22;16942;53.196;6.592;2022-08-21T03:32:12;15.90;99.90
30128;DHT22;16942;53.196;6.592;2022-08-21T03:34:38;15.90;99.90
30128;DHT22;16942;53.196;6.592;2022-08-21T03:37:06;15.90;99.90
30128;DHT22;16942;53.196;6.592;2022-08-21T03:39:32;15.90;99.90
30128;DHT22;16942;53.196;6.592;2022-08-21T03:41:57;16.00;99.90
30128;DHT22;16942;53.196;6.592;2022-08-21T03:44:25;15.90;99.90
30128;DHT22;16942;53.196;6.592;2022-08-21T03:46:53;16.00;99.90
30128;DHT22;16942;53.196;6.592;2022-08-21T03:49:18;16.00;99.90
30128;DHT22;16942;53.196;6.592;2022-08-21T03:51:44;16.00;99.90
30128;DHT22;16942;53.196;6.592;2022-08-21T03:54:10;15.90;99.90
30128;DHT22;16942;53.196;6.592;2022-08-21T03:56:35;16.00;99.90
30128;DHT22;16942;53.196;6.592;2022-08-21T03:59:01;15.90;99.90
30128;DHT22;16942;53.196;6.592;2022-08-21T04:01:28;15.90;99.90
30128;DHT22;16942;53.196;6.592;2022-08-21T04:03:53;15.90;99.90
30128;DHT22;16942;53.196;6.592;2022-08-21T04:06:19;15.90;99.90
30128;DHT22;16942;53.196;6.592;2022-08-21T04:08:45;16.00;99.90
30128;DHT22;16942;53.196;6.592;2022-08-21T04:11:10;16.00;99.90
30128;DHT22;16942;53.196;6.592;2022-08-21T04:13:37;16.00;99.90
30128;DHT22;16942;53.196;6.592;2022-08-21T04:16:04;16.00;99.90
30128;DHT22;16942;53.196;6.592;2022-08-21T04:18:29;16.00;99.90
30128;DHT22;16942;53.196;6.592;2022-08-21T04:20:57;16.00;99.90
30128;DHT22;16942;53.196;6.592;2022-08-21T04:23:23;16.00;99.90
30128;DHT22;16942;53.196;6.592;2022-08-21T04:25:50;16.00;99.90
30128;DHT22;16942;53.196;6.592;2022-08-21T04:28:15;15.90;99.90
30128;DHT22;16942;53.196;6.592;2022-08-21T04:30:41;15.90;99.90
30128;DHT22;16942;53.196;6.592;2022-08-21T04:33:07;15.90;99.90
30128;DHT22;16942;53.196;6.592;2022-08-21T04:35:32;15.90;99.90
30128;DHT22;16942;53.196;6.592;2022-08-21T04:37:58;15.90;99.90
30128;DHT22;16942;53.196;6.592;2022-08-21T04:40:26;15.80;99.90
30128;DHT22;16942;53.196;6.592;2022-08-21T04:42:55;15.80;99.90
30128;DHT22;16942;53.196;6.592;2022-08-21T04:45:25;15.80;99.90
30128;DHT22;16942;53.196;6.592;2022-08-21T04:47:54;15.80;99.90
30128;DHT22;16942;53.196;6.592;2022-08-21T04:50:23;15.80;99.90
30128;DHT22;16942;53.196;6.592;2022-08-21T04:52:49;15.80;99.90
30128;DHT22;16942;53.196;6.592;2022-08-21T04:55:16;15.80;99.90
30128;DHT22;16942;53.196;6.592;2022-08-21T04:57:43;15.80;99.90
30128;DHT22;16942;53.196;6.592;2022-08-21T05:00:10;15.90;99.90
30128;DHT22;16942;53.196;6.592;2022-08-21T05:02:38;15.90;99.90
30128;DHT22;16942;53.196;6.592;2022-08-21T05:05:05;15.90;99.90
30128;DHT22;16942;53.196;6.592;2022-08-21T05:07:31;15.90;99.90
30128;DHT22;16942;53.196;6.592;2022-08-21T05:09:59;15.90;99.90
30128;DHT22;16942;53.196;6.592;2022-08-21T05:12:25;15.90;99.90
30128;DHT22;16942;53.196;6.592;2022-08-21T05:14:50;15.90;99.90
30128;DHT22;16942;53.196;6.592;2022-08-21T05:17:16;15.90;99.90
30128;DHT22;16942;53.196;6.592;2022-08-21T05:19:42;15.90;99.90
30128;DHT22;16942;53.196;6.592;2022-08-21T05:22:07;15.90;99.90
30128;DHT22;16942;53.196;6.592;2022-08-21T05:24:35;15.80;99.90
30128;DHT22;16942;53.196;6.592;2022-08-21T05:27:01;15.80;99.90
30128;DHT22;16942;53.196;6.592;2022-08-21T05:29:26;15.90;99.90
30128;DHT22;16942;53.196;6.592;2022-08-21T05:31:52;15.90;99.90
30128;DHT22;16942;53.196;6.592;2022-08-21T05:34:20;16.00;99.90
30128;DHT22;16942;53.196;6.592;2022-08-21T05:36:46;16.00;99.90
30128;DHT22;16942;53.196;6.592;2022-08-21T05:39:13;16.10;99.90
30128;DHT22;16942;53.196;6.592;2022-08-21T05:41:38;16.10;99.90
30128;DHT22;16942;53.196;6.592;2022-08-21T05:44:04;16.10;99.90
30128;DHT22;16942;53.196;6.592;2022-08-21T05:46:30;16.10;99.90
30128;DHT22;16942;53.196;6.592;2022-08-21T05:48:55;16.10;99.90
30128;DHT22;16942;53.196;6.592;2022-08-21T05:51:21;16.20;99.90
30128;DHT22;16942;53.196;6.592;2022-08-21T05:53:47;16.20;99.90
30128;DHT22;16942;53.196;6.592;2022-08-21T05:56:13;16.20;99.90
30128;DHT22;16942;53.196;6.592;2022-08-21T05:58:39;16.20;99.90
30128;DHT22;16942;53.196;6.592;2022-08-21T06:01:05;16.30;99.90
30128;DHT22;16942;53.196;6.592;2022-08-21T06:03:33;16.40;99.90
30128;DHT22;16942;53.196;6.592;2022-08-21T06:06:00;16.40;99.90
30128;DHT22;16942;53.196;6.592;2022-08-21T06:08:27;16.40;99.90
30128;DHT22;16942;53.196;6.592;2022-08-21T06:10:54;16.40;99.90
30128;DHT22;16942;53.196;6.592;2022-08-21T06:13:21;16.50;99.90
30128;DHT22;16942;53.196;6.592;2022-08-21T06:15:48;16.40;99.90
30128;DHT22;16942;53.196;6.592;2022-08-21T06:18:14;16.60;99.90
30128;DHT22;16942;53.196;6.592;2022-08-21T06:20:40;16.70;99.90
30128;DHT22;16942;53.196;6.592;2022-08-21T06:23:06;16.70;99.90
30128;DHT22;16942;53.196;6.592;2022-08-21T06:25:32;16.70;99.90
30128;DHT22;16942;53.196;6.592;2022-08-21T06:28:06;16.70;99.90
30128;DHT22;16942;53.196;6.592;2022-08-21T06:30:33;16.80;99.90
30128;DHT22;16942;53.196;6.592;2022-08-21T06:32:59;16.90;99.90
30128;DHT22;16942;53.196;6.592;2022-08-21T06:35:25;16.90;99.90
30128;DHT22;16942;53.196;6.592;2022-08-21T06:37:51;16.90;99.90
30128;DHT22;16942;53.196;6.592;2022-08-21T06:40:17;16.90;99.90
30128;DHT22;16942;53.196;6.592;2022-08-21T06:42:43;17.00;99.90
30128;DHT22;16942;53.196;6.592;2022-08-21T06:45:09;17.00;99.90
30128;DHT22;16942;53.196;6.592;2022-08-21T06:47:35;17.00;99.90
30128;DHT22;16942;53.196;6.592;2022-08-21T06:50:01;17.10;99.90
30128;DHT22;16942;53.196;6.592;2022-08-21T06:52:26;17.20;99.90
30128;DHT22;16942;53.196;6.592;2022-08-21T06:54:52;17.20;99.90
30128;DHT22;16942;53.196;6.592;2022-08-21T06:57:18;17.20;99.90
30128;DHT22;16942;53.196;6.592;2022-08-21T06:59:43;17.20;99.90
30128;DHT22;16942;53.196;6.592;2022-08-21T07:02:09;17.30;99.90
30128;DHT22;16942;53.196;6.592;2022-08-21T07:04:34;17.40;99.90
30128;DHT22;16942;53.196;6.592;2022-08-21T07:07:00;17.40;99.90
30128;DHT22;16942;53.196;6.592;2022-08-21T07:09:26;17.50;99.90
30128;DHT22;16942;53.196;6.592;2022-08-21T07:11:54;17.50;99.90
30128;DHT22;16942;53.196;6.592;2022-08-21T07:14:21;17.50;99.90
30128;DHT22;16942;53.196;6.592;2022-08-21T07:16:47;17.60;99.90
30128;DHT22;16942;53.196;6.592;2022-08-21T07:19:13;17.70;99.90
30128;DHT22;16942;53.196;6.592;2022-08-21T07:21:38;17.80;99.90
30128;DHT22;16942;53.196;6.592;2022-08-21T07:24:04;18.00;99.90
30128;DHT22;16942;53.196;6.592;2022-08-21T07:26:30;18.00;99.90
30128;DHT22;16942;53.196;6.592;2022-08-21T07:28:55;18.10;99.90
30128;DHT22;16942;53.196;6.592;2022-08-21T07:31:23;18.10;99.90
30128;DHT22;16942;53.196;6.592;2022-08-21T07:33:49;18.10;99.90
30128;DHT22;16942;53.196;6.592;2022-08-21T07:36:14;18.20;99.90
30128;DHT22;16942;53.196;6.592;2022-08-21T07:38:40;18.30;99.90
30128;DHT22;16942;53.196;6.592;2022-08-21T07:41:18;18.40;99.90
30128;DHT22;16942;53.196;6.592;2022-08-21T07:43:44;18.50;99.90
30128;DHT22;16942;53.196;6.592;2022-08-21T07:46:10;18.50;99.90
30128;DHT22;16942;53.196;6.592;2022-08-21T07:48:36;18.50;99.90
30128;DHT22;16942;53.196;6.592;2022-08-21T07:51:10;18.60;99.90
30128;DHT22;16942;53.196;6.592;2022-08-21T07:53:36;18.70;99.90
30128;DHT22;16942;53.196;6.592;2022-08-21T07:56:02;18.70;99.90
30128;DHT22;16942;53.196;6.592;2022-08-21T07:58:30;18.80;99.90
30128;DHT22;16942;53.196;6.592;2022-08-21T08:00:56;18.90;99.90
30128;DHT22;16942;53.196;6.592;2022-08-21T08:03:21;19.00;99.90
30128;DHT22;16942;53.196;6.592;2022-08-21T08:05:47;19.00;99.90
30128;DHT22;16942;53.196;6.592;2022-08-21T08:08:13;19.10;99.90
30128;DHT22;16942;53.196;6.592;2022-08-21T08:10:39;19.20;99.90
30128;DHT22;16942;53.196;6.592;2022-08-21T08:13:05;19.20;99.90
30128;DHT22;16942;53.196;6.592;2022-08-21T08:15:30;19.20;99.90
30128;DHT22;16942;53.196;6.592;2022-08-21T08:17:56;19.30;99.90
30128;DHT22;16942;53.196;6.592;2022-08-21T08:20:23;19.40;99.90
30128;DHT22;16942;53.196;6.592;2022-08-21T08:22:52;19.50;99.90
30128;DHT22;16942;53.196;6.592;2022-08-21T08:25:19;19.50;99.90
30128;DHT22;16942;53.196;6.592;2022-08-21T08:27:45;19.60;99.90
30128;DHT22;16942;53.196;6.592;2022-08-21T08:30:12;19.70;99.90
30128;DHT22;16942;53.196;6.592;2022-08-21T08:32:38;19.70;99.90
30128;DHT22;16942;53.196;6.592;2022-08-21T08:35:05;19.70;99.90
30128;DHT22;16942;53.196;6.592;2022-08-21T08:37:32;19.80;99.90
30128;DHT22;16942;53.196;6.592;2022-08-21T08:39:58;19.80;99.90
30128;DHT22;16942;53.196;6.592;2022-08-21T08:42:30;19.80;99.90
30128;DHT22;16942;53.196;6.592;2022-08-21T08:45:00;20.00;99.90
30128;DHT22;16942;53.196;6.592;2022-08-21T08:47:27;20.20;99.90
30128;DHT22;16942;53.196;6.592;2022-08-21T08:49:56;20.20;99.90
30128;DHT22;16942;53.196;6.592;2022-08-21T08:52:31;20.30;99.90
30128;DHT22;16942;53.196;6.592;2022-08-21T08:55:07;20.30;99.90
30128;DHT22;16942;53.196;6.592;2022-08-21T08:57:36;20.30;99.90
30128;DHT22;16942;53.196;6.592;2022-08-21T09:00:08;20.40;99.90
30128;DHT22;16942;53.196;6.592;2022-08-21T09:02:38;20.40;99.90
30128;DHT22;16942;53.196;6.592;2022-08-21T09:05:05;20.50;99.90
30128;DHT22;16942;53.196;6.592;2022-08-21T09:11:00;20.70;99.90
30128;DHT22;16942;53.196;6.592;2022-08-21T09:22:18;21.20;99.90
30128;DHT22;16942;53.196;6.592;2022-08-21T09:27:20;21.40;99.90
30128;DHT22;16942;53.196;6.592;2022-08-21T09:29:49;21.50;99.90
30128;DHT22;16942;53.196;6.592;2022-08-21T09:32:28;21.60;99.90
30128;DHT22;16942;53.196;6.592;2022-08-21T09:37:33;21.80;99.90
30128;DHT22;16942;53.196;6.592;2022-08-21T09:40:01;21.90;99.90
30128;DHT22;16942;53.196;6.592;2022-08-21T09:42:31;21.90;99.90
30128;DHT22;16942;53.196;6.592;2022-08-21T09:45:17;22.00;99.90
30128;DHT22;16942;53.196;6.592;2022-08-21T09:47:43;22.00;99.90
30128;DHT22;16942;53.196;6.592;2022-08-21T09:50:31;22.00;99.90
30128;DHT22;16942;53.196;6.592;2022-08-21T09:52:58;22.00;99.90
30128;DHT22;16942;53.196;6.592;2022-08-21T09:55:32;21.90;99.90
30128;DHT22;16942;53.196;6.592;2022-08-21T09:58:18;21.90;99.90
30128;DHT22;16942;53.196;6.592;2022-08-21T10:00:44;21.90;99.90
30128;DHT22;16942;53.196;6.592;2022-08-21T10:03:17;22.00;99.90
30128;DHT22;16942;53.196;6.592;2022-08-21T10:06:03;22.10;99.90
30128;DHT22;16942;53.196;6.592;2022-08-21T10:08:32;22.20;99.90
30128;DHT22;16942;53.196;6.592;2022-08-21T10:11:17;22.40;99.90
30128;DHT22;16942;53.196;6.592;2022-08-21T10:22:01;22.60;99.90
30128;DHT22;16942;53.196;6.592;2022-08-21T10:27:14;23.00;99.90
30128;DHT22;16942;53.196;6.592;2022-08-21T10:37:35;23.50;99.90
30128;DHT22;16942;53.196;6.592;2022-08-21T10:48:29;22.90;99.90
30128;DHT22;16942;53.196;6.592;2022-08-21T10:56:25;22.30;99.90
30128;DHT22;16942;53.196;6.592;2022-08-21T11:01:59;22.10;99.90
30128;DHT22;16942;53.196;6.592;2022-08-21T11:04:54;22.00;99.90
30128;DHT22;16942;53.196;6.592;2022-08-21T11:09:51;22.00;99.90
30128;DHT22;16942;53.196;6.592;2022-08-21T11:15:21;21.80;99.90
30128;DHT22;16942;53.196;6.592;2022-08-21T11:17:54;21.80;99.90
30128;DHT22;16942;53.196;6.592;2022-08-21T11:20:50;21.80;99.90
30128;DHT22;16942;53.196;6.592;2022-08-21T11:24:12;21.80;99.90
30128;DHT22;16942;53.196;6.592;2022-08-21T11:29:16;21.80;99.90
30128;DHT22;16942;53.196;6.592;2022-08-21T11:31:50;21.80;99.90
30128;DHT22;16942;53.196;6.592;2022-08-21T11:37:09;21.90;99.90
30128;DHT22;16942;53.196;6.592;2022-08-21T11:42:34;22.00;99.90
30128;DHT22;16942;53.196;6.592;2022-08-21T11:45:22;22.00;99.90
30128;DHT22;16942;53.196;6.592;2022-08-21T11:50:54;22.60;99.90
30128;DHT22;16942;53.196;6.592;2022-08-21T11:53:37;23.50;99.90
30128;DHT22;16942;53.196;6.592;2022-08-21T11:56:21;24.40;99.90
30128;DHT22;16942;53.196;6.592;2022-08-21T11:58:53;24.80;99.90
30128;DHT22;16942;53.196;6.592;2022-08-21T12:01:23;24.60;99.90
30128;DHT22;16942;53.196;6.592;2022-08-21T12:04:30;24.30;99.90
30128;DHT22;16942;53.196;6.592;2022-08-21T12:07:17;24.10;99.90
30128;DHT22;16942;53.196;6.592;2022-08-21T12:09:56;23.90;99.90
30128;DHT22;16942;53.196;6.592;2022-08-21T12:12:25;23.90;99.90
30128;DHT22;16942;53.196;6.592;2022-08-21T12:17:40;23.70;99.90
30128;DHT22;16942;53.196;6.592;2022-08-21T12:20:16;23.60;99.90
30128;DHT22;16942;53.196;6.592;2022-08-21T12:22:52;23.50;99.90
30128;DHT22;16942;53.196;6.592;2022-08-21T12:25:19;23.50;99.90
30128;DHT22;16942;53.196;6.592;2022-08-21T12:30:32;23.80;99.90
30128;DHT22;16942;53.196;6.592;2022-08-21T12:33:30;24.50;99.90
30128;DHT22;16942;53.196;6.592;2022-08-21T12:36:13;25.10;99.90
30128;DHT22;16942;53.196;6.592;2022-08-21T12:38:50;25.50;99.90
30128;DHT22;16942;53.196;6.592;2022-08-21T12:41:20;25.80;99.90
30128;DHT22;16942;53.196;6.592;2022-08-21T12:43:51;26.00;99.90
30128;DHT22;16942;53.196;6.592;2022-08-21T12:46:32;26.30;99.90
30128;DHT22;16942;53.196;6.592;2022-08-21T12:49:27;26.30;99.90
30128;DHT22;16942;53.196;6.592;2022-08-21T12:52:03;26.30;99.90
30128;DHT22;16942;53.196;6.592;2022-08-21T12:54:38;26.40;99.90
30128;DHT22;16942;53.196;6.592;2022-08-21T12:57:07;26.60;99.90
30128;DHT22;16942;53.196;6.592;2022-08-21T12:59:37;26.60;99.90
30128;DHT22;16942;53.196;6.592;2022-08-21T13:02:11;26.50;99.90
30128;DHT22;16942;53.196;6.592;2022-08-21T13:04:41;26.60;99.90
30128;DHT22;16942;53.196;6.592;2022-08-21T13:07:09;26.80;99.90
30128;DHT22;16942;53.196;6.592;2022-08-21T13:12:35;26.60;99.90
30128;DHT22;16942;53.196;6.592;2022-08-21T13:15:04;26.50;99.90
30128;DHT22;16942;53.196;6.592;2022-08-21T13:17:34;26.40;99.90
30128;DHT22;16942;53.196;6.592;2022-08-21T13:22:32;25.90;99.90
30128;DHT22;16942;53.196;6.592;2022-08-21T13:25:01;25.60;99.90
30128;DHT22;16942;53.196;6.592;2022-08-21T13:27:29;25.30;99.90
30128;DHT22;16942;53.196;6.592;2022-08-21T13:30:11;25.10;99.90
30128;DHT22;16942;53.196;6.592;2022-08-21T13:32:41;24.90;99.90
30128;DHT22;16942;53.196;6.592;2022-08-21T13:35:10;24.60;99.90
30128;DHT22;16942;53.196;6.592;2022-08-21T13:37:39;24.50;99.90
30128;DHT22;16942;53.196;6.592;2022-08-21T13:40:09;24.40;99.90
30128;DHT22;16942;53.196;6.592;2022-08-21T13:42:35;24.30;99.90
30128;DHT22;16942;53.196;6.592;2022-08-21T13:45:01;24.20;99.90
30128;DHT22;16942;53.196;6.592;2022-08-21T13:47:26;24.10;99.90
30128;DHT22;16942;53.196;6.592;2022-08-21T13:49:53;24.10;99.90
30128;DHT22;16942;53.196;6.592;2022-08-21T13:52:22;24.00;99.90
30128;DHT22;16942;53.196;6.592;2022-08-21T13:55:12;24.10;99.90
30128;DHT22;16942;53.196;6.592;2022-08-21T13:57:38;24.10;99.90
30128;DHT22;16942;53.196;6.592;2022-08-21T14:02:40;24.10;99.90
30128;DHT22;16942;53.196;6.592;2022-08-21T14:05:08;24.10;99.90
30128;DHT22;16942;53.196;6.592;2022-08-21T14:07:40;24.10;99.90
30128;DHT22;16942;53.196;6.592;2022-08-21T14:10:20;24.30;99.90
30128;DHT22;16942;53.196;6.592;2022-08-21T14:12:49;24.80;99.90
30128;DHT22;16942;53.196;6.592;2022-08-21T14:15:20;25.30;99.90
30128;DHT22;16942;53.196;6.592;2022-08-21T14:17:47;25.60;99.90
30128;DHT22;16942;53.196;6.592;2022-08-21T14:20:33;25.50;99.90
30128;DHT22;16942;53.196;6.592;2022-08-21T14:22:59;25.30;99.90
30128;DHT22;16942;53.196;6.592;2022-08-21T14:30:34;24.80;99.90
30128;DHT22;16942;53.196;6.592;2022-08-21T14:33:02;24.80;99.90
30128;DHT22;16942;53.196;6.592;2022-08-21T14:35:28;24.90;99.90
30128;DHT22;16942;53.196;6.592;2022-08-21T14:37:54;24.80;99.90
30128;DHT22;16942;53.196;6.592;2022-08-21T14:40:23;24.70;99.90
30128;DHT22;16942;53.196;6.592;2022-08-21T14:42:50;24.60;99.90
30128;DHT22;16942;53.196;6.592;2022-08-21T14:47:49;24.90;99.90
30128;DHT22;16942;53.196;6.592;2022-08-21T14:50:15;25.30;99.90
30128;DHT22;16942;53.196;6.592;2022-08-21T14:52:41;25.50;99.90
30128;DHT22;16942;53.196;6.592;2022-08-21T14:55:08;25.50;99.90
30128;DHT22;16942;53.196;6.592;2022-08-21T14:57:36;25.30;99.90
30128;DHT22;16942;53.196;6.592;2022-08-21T15:00:04;25.20;99.90
30128;DHT22;16942;53.196;6.592;2022-08-21T15:02:30;25.00;99.90
30128;DHT22;16942;53.196;6.592;2022-08-21T15:04:55;24.90;99.90
30128;DHT22;16942;53.196;6.592;2022-08-21T15:07:21;25.20;99.90
30128;DHT22;16942;53.196;6.592;2022-08-21T15:09:46;25.50;99.90
30128;DHT22;16942;53.196;6.592;2022-08-21T15:12:13;25.80;99.90
30128;DHT22;16942;53.196;6.592;2022-08-21T15:14:39;25.90;99.90
30128;DHT22;16942;53.196;6.592;2022-08-21T15:17:09;26.20;99.90
30128;DHT22;16942;53.196;6.592;2022-08-21T15:19:36;26.40;99.90
30128;DHT22;16942;53.196;6.592;2022-08-21T15:22:04;26.40;99.90
30128;DHT22;16942;53.196;6.592;2022-08-21T15:24:30;26.10;99.90
30128;DHT22;16942;53.196;6.592;2022-08-21T15:26:56;25.70;99.90
30128;DHT22;16942;53.196;6.592;2022-08-21T15:29:23;25.40;99.90
30128;DHT22;16942;53.196;6.592;2022-08-21T15:34:17;25.20;99.90
30128;DHT22;16942;53.196;6.592;2022-08-21T15:36:42;25.30;99.90
30128;DHT22;16942;53.196;6.592;2022-08-21T15:39:08;25.50;99.90
30128;DHT22;16942;53.196;6.592;2022-08-21T15:41:34;25.70;99.90
30128;DHT22;16942;53.196;6.592;2022-08-21T15:43:59;25.70;99.90
30128;DHT22;16942;53.196;6.592;2022-08-21T15:46:25;25.80;99.90
30128;DHT22;16942;53.196;6.592;2022-08-21T15:48:50;25.70;99.90
30128;DHT22;16942;53.196;6.592;2022-08-21T15:51:17;25.70;99.90
30128;DHT22;16942;53.196;6.592;2022-08-21T15:53:43;25.70;99.90
30128;DHT22;16942;53.196;6.592;2022-08-21T15:56:18;25.70;99.90
30128;DHT22;16942;53.196;6.592;2022-08-21T15:58:46;25.60;99.90
30128;DHT22;16942;53.196;6.592;2022-08-21T16:01:12;25.50;99.90
30128;DHT22;16942;53.196;6.592;2022-08-21T16:03:38;25.30;99.90
30128;DHT22;16942;53.196;6.592;2022-08-21T16:06:04;25.20;99.90
30128;DHT22;16942;53.196;6.592;2022-08-21T16:08:29;25.00;99.90
30128;DHT22;16942;53.196;6.592;2022-08-21T16:10:55;24.90;99.90
30128;DHT22;16942;53.196;6.592;2022-08-21T16:13:32;24.90;99.90
30128;DHT22;16942;53.196;6.592;2022-08-21T16:16:00;24.70;99.90
30128;DHT22;16942;53.196;6.592;2022-08-21T16:18:26;24.60;99.90
30128;DHT22;16942;53.196;6.592;2022-08-21T16:20:52;24.50;99.90
30128;DHT22;16942;53.196;6.592;2022-08-21T16:23:18;24.40;99.90
30128;DHT22;16942;53.196;6.592;2022-08-21T16:25:44;24.40;99.90
30128;DHT22;16942;53.196;6.592;2022-08-21T16:28:13;24.30;99.90
30128;DHT22;16942;53.196;6.592;2022-08-21T16:30:40;24.40;99.90
30128;DHT22;16942;53.196;6.592;2022-08-21T16:33:07;24.50;99.90
30128;DHT22;16942;53.196;6.592;2022-08-21T16:35:37;24.60;99.90
30128;DHT22;16942;53.196;6.592;2022-08-21T16:38:02;24.60;99.90
30128;DHT22;16942;53.196;6.592;2022-08-21T16:40:28;24.60;99.90
30128;DHT22;16942;53.196;6.592;2022-08-21T16:42:54;24.50;99.90
30128;DHT22;16942;53.196;6.592;2022-08-21T16:45:20;24.40;99.90
30128;DHT22;16942;53.196;6.592;2022-08-21T16:47:46;24.00;99.90
30128;DHT22;16942;53.196;6.592;2022-08-21T16:50:18;23.90;99.90
30128;DHT22;16942;53.196;6.592;2022-08-21T16:52:44;23.90;99.90
30128;DHT22;16942;53.196;6.592;2022-08-21T16:55:09;23.70;99.90
30128;DHT22;16942;53.196;6.592;2022-08-21T16:57:35;23.60;99.90
30128;DHT22;16942;53.196;6.592;2022-08-21T17:00:05;23.50;99.90
30128;DHT22;16942;53.196;6.592;2022-08-21T17:02:45;23.50;99.90
30128;DHT22;16942;53.196;6.592;2022-08-21T17:05:12;23.40;99.90
30128;DHT22;16942;53.196;6.592;2022-08-21T17:07:38;23.40;99.90
30128;DHT22;16942;53.196;6.592;2022-08-21T17:10:09;23.40;99.90
30128;DHT22;16942;53.196;6.592;2022-08-21T17:12:35;23.40;99.90